Belgrade, MN (56312)

10:38 AM CST on December 04, 2016 (GMT -0600)
Paynesville | | Change Station

Elev 1181 ft 45.37 °N, 94.74 °W | Updated 5 minutes ago

Overcast
Overcast
33 °F
Feels Like 26 °F
N
9
Wind Variable Wind from South

Today
High -- | Low -- °F
--% Chance of Precip.
Yesterday
High -- | Low -- °F
Precip. -- in
Pressure 29.81 in
Visibility 5.0 miles
Clouds Overcast 600 ft
Windchill 26 °F
Dew Point 33 °F
Humidity 100%
Rainfall 0.05 in
Snow Depth Not available.
7:43 AM 4:37 PM
Waxing Crescent, 23% visible
METAR KPEX 041633Z AUTO 18008KT 5SM BR OVC006 01/01 A2981 RMK AO2 T00070008
Pressure 29.81 in
Visibility 5.0 miles
Clouds Overcast 600 ft
Windchill 26 °F
Dew Point 33 °F
Humidity 100%
Rainfall 0.05 in
Snow Depth Not available.
7:43 AM 4:37 PM
Waxing Crescent, 23% visible
METAR KPEX 041633Z AUTO 18008KT 5SM BR OVC006 01/01 A2981 RMK AO2 T00070008

10-Day Weather Forecast

Almanac

Astronomy

Dec. 04, 2016 Rise Set
Actual Time
Civil Twilight
Nautical Twilight
Astronomical Twilight
Moon
Length of Visible Light
Length of Day
Tomorrow will be .
, % of the Moon is Illuminated

Today's Extremes

State Highs State Lows

Community

WunderPhotos

Upload Photos

1,955,622 photos uploaded!

WunderBlog® & News

Nearby

Air Quality

  Air Quality AQ Index Pollutant
Not available.

Snow Depth

Station Depth Elevation

Earthquake Activity

City Distance Mag. Time & Date
Minimum magnitude displayed is 2.5.

Coastal Water Temperatures

Place Temperature

Stations

Nearby Weather Stations

Station Location Temp. Windchill Dew Point Humidity Wind Precip. Elev Updated Type
                   

Watches & Warnings

There are currently no watches in effect.